Time;durP1;ratioP1;P1;durP2;ratioP2;P2;SDS_P1;SDS_P2;PMS_P1;PMS_P2;Temp;Humidity;BMP_temperature;BMP_pressure;BME280_temperature;BME280_humidity;BME280_pressure;Samples;Min_cycle;Max_cycle;Signal;HPM_P1;HPM_P2
2023/03/26 00:01:12;;;;;;;0.75;0.10;;;8.60;99.90;;;;;;5076386;28;20029;-71
2023/03/26 00:03:39;;;;;;;1.35;0.38;;;8.60;99.90;;;;;;5076391;28;20028;-71
2023/03/26 00:06:11;;;;;;;0.73;0.08;;;8.60;99.90;;;;;;5058415;28;20590;-71
2023/03/26 00:08:39;;;;;;;0.05;0.00;;;8.50;99.90;;;;;;5058282;28;20031;-72
2023/03/26 00:11:07;;;;;;;0.32;0.10;;;8.60;99.90;;;;;;5076276;28;20024;-71
2023/03/26 00:13:33;;;;;;;1.52;0.20;;;8.60;99.90;;;;;;5076202;28;20052;-71
2023/03/26 00:16:00;;;;;;;0.77;0.10;;;8.60;99.90;;;;;;5076017;28;20064;-72
2023/03/26 00:18:30;;;;;;;1.23;0.20;;;8.60;99.90;;;;;;5058116;28;20119;-72
2023/03/26 00:21:01;;;;;;;0.45;0.03;;;8.70;99.90;;;;;;5058127;28;20052;-71
2023/03/26 00:23:28;;;;;;;1.13;0.10;;;8.70;99.90;;;;;;5076341;28;20056;-71
2023/03/26 00:25:55;;;;;;;0.95;0.20;;;8.80;99.90;;;;;;5057677;28;20067;-71
2023/03/26 00:28:22;;;;;;;0.80;0.10;;;8.80;99.90;;;;;;5074704;28;20468;-71
2023/03/26 00:30:48;;;;;;;0.05;0.05;;;8.80;99.90;;;;;;5076135;28;20071;-71
2023/03/26 00:33:18;;;;;;;0.68;0.10;;;8.90;99.90;;;;;;5075761;28;20442;-71
2023/03/26 00:35:45;;;;;;;1.05;0.28;;;8.90;99.90;;;;;;5057710;28;20029;-72
2023/03/26 00:38:14;;;;;;;2.63;0.15;;;8.90;99.90;;;;;;5075544;28;20028;-71
2023/03/26 00:40:42;;;;;;;1.70;0.35;;;8.90;99.90;;;;;;5076020;28;20023;-71
2023/03/26 00:43:17;;;;;;;0.88;0.25;;;8.90;99.90;;;;;;5075644;28;20025;-71
2023/03/26 00:45:47;;;;;;;3.80;0.35;;;8.90;99.90;;;;;;5058239;28;20385;-71
2023/03/26 00:48:13;;;;;;;1.40;0.40;;;9.00;99.90;;;;;;5075888;28;20108;-71
2023/03/26 00:50:40;;;;;;;2.10;0.10;;;9.00;99.90;;;;;;5075405;28;20024;-72
2023/03/26 00:53:07;;;;;;;0.95;0.20;;;9.00;99.90;;;;;;5057053;28;20127;-72
2023/03/26 00:55:34;;;;;;;2.88;0.30;;;9.00;99.90;;;;;;5075317;28;20024;-71
2023/03/26 00:58:00;;;;;;;0.57;0.20;;;9.00;99.90;;;;;;5075122;28;20067;-71
2023/03/26 01:00:35;;;;;;;0.95;0.17;;;9.00;99.90;;;;;;5075281;28;20025;-72
2023/03/26 01:03:03;;;;;;;1.67;0.30;;;8.90;99.90;;;;;;5075233;28;20016;-72
2023/03/26 01:05:34;;;;;;;0.10;0.10;;;8.90;99.90;;;;;;5075187;28;20028;-72
2023/03/26 01:08:13;;;;;;;0.40;0.20;;;8.90;99.90;;;;;;5057113;28;20471;-72
2023/03/26 01:10:40;;;;;;;4.88;0.40;;;9.00;99.90;;;;;;5074040;28;20024;-72
2023/03/26 01:13:06;;;;;;;0.98;0.20;;;9.00;99.90;;;;;;5074693;28;20020;-72
2023/03/26 01:15:32;;;;;;;3.03;0.25;;;9.00;99.90;;;;;;5056885;28;20055;-72
2023/03/26 01:17:58;;;;;;;1.27;0.20;;;9.00;99.90;;;;;;5056946;28;20460;-72
2023/03/26 01:20:29;;;;;;;1.45;0.20;;;9.00;99.90;;;;;;5074864;28;20035;-72
2023/03/26 01:23:01;;;;;;;1.50;0.30;;;9.00;99.90;;;;;;5075055;28;20024;-72
2023/03/26 01:25:36;;;;;;;1.67;0.17;;;9.00;99.90;;;;;;5056850;28;20032;-72
2023/03/26 01:28:07;;;;;;;1.02;0.30;;;9.00;99.90;;;;;;5074729;28;20377;-71
2023/03/26 01:30:41;;;;;;;1.95;0.55;;;9.20;99.90;;;;;;5057255;28;20067;-71
2023/03/26 01:33:32;;;;;;;1.30;0.20;;;9.10;99.90;;;;;;5057083;28;20154;-71
2023/03/26 01:36:12;;;;;;;0.15;0.10;;;9.10;99.90;;;;;;5056587;28;20036;-71
2023/03/26 01:38:45;;;;;;;1.13;0.10;;;9.10;99.90;;;;;;5056313;28;20115;-72
2023/03/26 01:41:33;;;;;;;2.05;0.20;;;9.20;99.90;;;;;;5074665;28;20025;-71
2023/03/26 01:44:17;;;;;;;0.40;0.08;;;9.20;99.90;;;;;;5074383;28;20025;-71
2023/03/26 01:46:44;;;;;;;1.58;0.32;;;9.30;99.90;;;;;;5074368;28;20361;-72
2023/03/26 01:49:11;;;;;;;2.92;0.22;;;9.30;99.90;;;;;;5074297;28;20027;-72
2023/03/26 01:51:39;;;;;;;0.95;0.32;;;9.30;99.90;;;;;;5074116;28;20127;-72
2023/03/26 01:54:08;;;;;;;2.10;0.20;;;9.30;99.90;;;;;;5074260;28;20028;-71
2023/03/26 01:56:53;;;;;;;0.85;0.15;;;9.30;99.90;;;;;;5072828;28;20422;-72
2023/03/26 01:59:37;;;;;;;0.63;0.20;;;9.30;99.90;;;;;;5074205;28;20039;-72
2023/03/26 02:02:11;;;;;;;1.65;0.10;;;9.30;99.90;;;;;;5074187;28;20016;-72
2023/03/26 02:05:00;;;;;;;0.55;0.20;;;9.30;99.90;;;;;;5056463;28;20020;-72
2023/03/26 02:07:33;;;;;;;1.38;0.20;;;9.30;99.90;;;;;;5074551;28;20024;-72
2023/03/26 02:10:05;;;;;;;2.28;0.30;;;9.20;99.90;;;;;;5056460;28;20024;-72
2023/03/26 02:12:32;;;;;;;1.45;0.17;;;9.20;99.90;;;;;;5072956;28;20028;-72
2023/03/26 02:15:01;;;;;;;1.85;0.90;;;9.20;99.90;;;;;;5072647;28;20383;-71
2023/03/26 02:17:28;;;;;;;1.65;0.10;;;9.10;99.90;;;;;;5073606;28;20056;-72
2023/03/26 02:19:55;;;;;;;2.10;0.20;;;9.10;99.90;;;;;;5073679;28;20034;-72
2023/03/26 02:22:21;;;;;;;1.75;0.17;;;9.20;99.90;;;;;;5055907;28;20033;-71
2023/03/26 02:24:47;;;;;;;1.42;0.10;;;9.20;99.90;;;;;;5073595;28;20028;-72
2023/03/26 02:27:17;;;;;;;1.73;0.20;;;9.10;99.90;;;;;;5073615;28;20048;-71
2023/03/26 02:29:42;;;;;;;2.10;0.55;;;9.10;99.90;;;;;;5074202;28;20025;-72
2023/03/26 02:32:12;;;;;;;1.50;0.30;;;9.10;99.90;;;;;;5055649;28;20025;-74
2023/03/26 02:34:39;;;;;;;0.90;0.28;;;9.10;99.90;;;;;;5074114;28;20430;-73
2023/03/26 02:37:04;;;;;;;1.55;0.25;;;9.10;99.90;;;;;;5074376;28;20037;-72
2023/03/26 02:39:30;;;;;;;3.42;0.40;;;9.10;99.90;;;;;;5074689;28;20056;-72
2023/03/26 02:41:56;;;;;;;1.25;0.17;;;9.10;99.90;;;;;;5074337;28;20036;-72
2023/03/26 02:44:21;;;;;;;1.98;0.32;;;9.10;99.90;;;;;;5074006;28;20021;-72
2023/03/26 02:46:47;;;;;;;1.30;0.30;;;9.10;99.90;;;;;;5074064;28;20494;-72
2023/03/26 02:49:12;;;;;;;1.25;0.13;;;9.00;99.90;;;;;;5073715;28;20029;-72
2023/03/26 02:51:38;;;;;;;3.10;0.20;;;9.10;99.90;;;;;;5075271;28;20488;-72
2023/03/26 02:54:05;;;;;;;1.75;0.57;;;9.10;99.90;;;;;;5078441;28;20047;-71
2023/03/26 02:56:31;;;;;;;0.90;0.30;;;9.10;99.90;;;;;;5078092;28;20031;-72
2023/03/26 02:58:57;;;;;;;1.33;0.35;;;9.10;99.90;;;;;;5077539;28;20033;-71
2023/03/26 03:01:23;;;;;;;1.95;0.20;;;9.10;99.90;;;;;;5078182;28;20082;-72
2023/03/26 03:03:49;;;;;;;2.67;0.40;;;9.20;99.90;;;;;;5060747;28;20455;-72
2023/03/26 03:06:17;;;;;;;1.02;0.20;;;9.20;99.90;;;;;;5078812;28;20082;-72
2023/03/26 03:08:44;;;;;;;1.83;0.22;;;9.30;99.90;;;;;;5078088;28;20031;-72
2023/03/26 03:11:16;;;;;;;1.52;0.40;;;9.30;99.90;;;;;;5078696;28;20025;-72
2023/03/26 03:13:43;;;;;;;1.33;0.68;;;9.40;99.90;;;;;;5076705;28;20464;-72
2023/03/26 03:16:09;;;;;;;2.28;0.40;;;9.40;99.90;;;;;;5059616;28;20061;-72
2023/03/26 03:18:36;;;;;;;2.15;0.40;;;9.30;99.90;;;;;;5076239;28;20040;-72
2023/03/26 03:21:03;;;;;;;2.38;0.30;;;9.30;99.90;;;;;;5059636;28;20029;-71
2023/03/26 03:23:28;;;;;;;3.38;0.60;;;9.30;99.90;;;;;;5075820;28;20086;-71
2023/03/26 03:25:55;;;;;;;2.92;0.32;;;9.30;99.90;;;;;;5077062;28;20436;-71
2023/03/26 03:28:22;;;;;;;4.43;0.50;;;9.20;99.90;;;;;;5077047;28;20067;-71
2023/03/26 03:30:51;;;;;;;2.47;0.65;;;9.20;99.90;;;;;;5076980;28;20478;-68
2023/03/26 03:33:19;;;;;;;;;;;9.30;99.90;;;;;;5077053;28;20490;-69
2023/03/26 03:35:46;;;;;;;2.80;0.55;;;9.50;99.90;;;;;;5076807;28;19916;-71
2023/03/26 03:38:12;;;;;;;1.95;0.30;;;9.50;99.90;;;;;;5075638;28;20040;-72
2023/03/26 03:40:38;;;;;;;2.67;0.32;;;9.40;99.90;;;;;;5058933;28;20025;-71
2023/03/26 03:43:04;;;;;;;3.22;0.60;;;9.40;99.90;;;;;;5076447;28;20468;-71
2023/03/26 03:45:29;;;;;;;2.70;0.40;;;9.30;99.90;;;;;;5076728;28;20520;-72
2023/03/26 03:47:55;;;;;;;1.95;0.30;;;9.30;99.90;;;;;;5058895;28;20031;-72
2023/03/26 03:50:21;;;;;;;2.25;0.20;;;9.30;99.90;;;;;;5077271;28;20024;-72
2023/03/26 03:52:46;;;;;;;1.85;0.30;;;9.30;99.90;;;;;;5059702;28;20076;-72
2023/03/26 03:55:12;;;;;;;1.13;0.30;;;9.30;99.90;;;;;;5077453;28;20033;-72
2023/03/26 03:57:39;;;;;;;1.63;0.20;;;9.30;99.90;;;;;;5059317;28;20554;-72
2023/03/26 04:00:10;;;;;;;0.80;0.22;;;9.30;99.90;;;;;;5077262;28;20031;-72
2023/03/26 04:02:36;;;;;;;1.85;0.28;;;9.30;99.90;;;;;;5076208;28;20024;-72
2023/03/26 04:05:04;;;;;;;1.85;0.30;;;9.30;99.90;;;;;;5076354;28;20036;-71
2023/03/26 04:07:31;;;;;;;2.35;0.50;;;9.30;99.90;;;;;;5058407;28;20054;-72
2023/03/26 04:09:58;;;;;;;2.53;0.40;;;9.20;99.90;;;;;;5076520;28;20127;-71
2023/03/26 04:12:28;;;;;;;3.42;0.30;;;9.20;99.90;;;;;;5058320;28;20024;-72
2023/03/26 04:14:54;;;;;;;2.50;0.40;;;9.20;99.90;;;;;;5058036;28;20108;-72
2023/03/26 04:17:22;;;;;;;2.80;0.25;;;9.10;99.90;;;;;;5076111;28;20035;-72
2023/03/26 04:19:49;;;;;;;1.33;0.35;;;9.10;99.90;;;;;;5076119;28;20024;-72
2023/03/26 04:22:17;;;;;;;2.95;0.30;;;9.10;99.90;;;;;;5058163;28;20051;-72
2023/03/26 04:24:43;;;;;;;0.50;0.13;;;9.10;99.90;;;;;;5076030;28;20056;-71
2023/03/26 04:27:19;;;;;;;3.00;0.30;;;9.00;99.90;;;;;;5075938;28;20051;-71
2023/03/26 04:29:48;;;;;;;4.18;0.98;;;9.00;99.90;;;;;;5075958;28;20025;-71
2023/03/26 04:32:28;;;;;;;0.52;0.17;;;8.90;99.90;;;;;;5075914;28;20512;-71
2023/03/26 04:34:55;;;;;;;1.85;0.47;;;9.00;99.90;;;;;;5057793;28;20082;-72
2023/03/26 04:37:33;;;;;;;5.40;0.65;;;8.90;99.90;;;;;;5075727;28;20036;-71
2023/03/26 04:40:09;;;;;;;2.92;0.30;;;8.90;99.90;;;;;;5075754;28;20028;-72
2023/03/26 04:42:45;;;;;;;2.72;0.30;;;8.90;99.90;;;;;;5075785;28;20025;-71
2023/03/26 04:45:21;;;;;;;1.58;0.20;;;8.90;99.90;;;;;;5075690;28;20547;-71
2023/03/26 04:47:47;;;;;;;2.28;0.30;;;8.90;99.90;;;;;;5075624;28;20456;-72
2023/03/26 04:50:13;;;;;;;1.20;0.28;;;8.90;99.90;;;;;;5057546;28;20430;-72
2023/03/26 04:52:39;;;;;;;6.13;0.70;;;8.90;99.90;;;;;;5075207;28;20431;-71
2023/03/26 04:55:15;;;;;;;1.45;0.20;;;8.90;99.90;;;;;;5075302;28;20108;-71
2023/03/26 04:57:45;;;;;;;2.83;0.30;;;9.00;99.90;;;;;;5057221;28;20031;-71
2023/03/26 05:00:14;;;;;;;2.83;0.40;;;9.00;99.90;;;;;;5075320;28;20020;-69
2023/03/26 05:02:41;;;;;;;1.35;0.45;;;9.00;99.90;;;;;;5084997;28;20464;-78
2023/03/26 05:05:08;;;;;;;5.78;0.98;;;9.20;99.90;;;;;;5077862;28;20024;-75
2023/03/26 05:07:33;;;;;;;2.25;0.30;;;9.40;99.90;;;;;;5095405;28;20066;-70
2023/03/26 05:10:02;;;;;;;1.98;0.28;;;9.30;99.90;;;;;;5077455;28;20021;-70
2023/03/26 05:12:28;;;;;;;1.98;0.20;;;9.20;99.90;;;;;;5095576;28;20047;-70
2023/03/26 05:14:53;;;;;;;2.20;0.10;;;9.10;99.90;;;;;;5094556;28;20032;-70
2023/03/26 05:17:20;;;;;;;1.05;0.22;;;9.10;99.90;;;;;;5094897;28;20058;-70
2023/03/26 05:19:46;;;;;;;1.25;0.20;;;9.10;99.90;;;;;;5076941;28;20057;-70
2023/03/26 05:22:12;;;;;;;1.40;0.30;;;9.10;99.90;;;;;;5076911;28;20046;-70
2023/03/26 05:24:38;;;;;;;1.40;0.30;;;9.10;99.90;;;;;;5095056;28;20520;-70
2023/03/26 05:27:03;;;;;;;1.42;0.30;;;9.10;99.90;;;;;;5076840;28;20464;-70
2023/03/26 05:29:29;;;;;;;2.88;0.45;;;9.10;99.90;;;;;;5094949;28;20380;-70
2023/03/26 05:31:55;;;;;;;1.90;0.70;;;9.10;99.90;;;;;;5094870;28;20084;-70
2023/03/26 05:34:25;;;;;;;3.53;0.40;;;9.00;99.90;;;;;;5094850;28;20084;-70
2023/03/26 05:36:50;;;;;;;3.85;0.52;;;9.00;99.90;;;;;;5094453;28;20466;-71
2023/03/26 05:39:16;;;;;;;1.08;0.25;;;9.00;99.90;;;;;;5094794;28;20103;-70
2023/03/26 05:41:43;;;;;;;1.92;0.40;;;9.00;99.90;;;;;;5094889;28;20485;-70
2023/03/26 05:44:09;;;;;;;0.70;0.20;;;9.10;99.90;;;;;;5076677;28;20115;-70
2023/03/26 05:46:34;;;;;;;3.75;0.55;;;9.20;99.90;;;;;;5094676;28;20092;-70
2023/03/26 05:49:00;;;;;;;1.02;0.40;;;9.20;99.90;;;;;;5094498;28;20032;-70
2023/03/26 05:51:26;;;;;;;1.70;0.38;;;9.40;99.90;;;;;;5094421;28;20414;-70
2023/03/26 05:53:51;;;;;;;2.75;0.90;;;9.50;99.90;;;;;;5094699;28;20479;-70
2023/03/26 05:56:17;;;;;;;1.42;0.50;;;9.70;99.90;;;;;;5094145;28;20064;-71
2023/03/26 05:58:43;;;;;;;2.47;0.65;;;9.80;99.90;;;;;;5094401;28;20028;-70
2023/03/26 06:01:15;;;;;;;3.15;0.47;;;9.90;99.90;;;;;;5076178;28;20028;-70
2023/03/26 06:03:43;;;;;;;1.95;0.50;;;10.00;99.90;;;;;;5075958;28;20024;-70
2023/03/26 06:06:15;;;;;;;2.67;0.65;;;10.00;99.90;;;;;;5094324;28;20032;-70
2023/03/26 06:08:47;;;;;;;1.75;0.38;;;10.30;99.90;;;;;;5094497;28;20024;-76
2023/03/26 06:11:14;;;;;;;2.38;0.50;;;10.60;99.90;;;;;;5094067;28;20464;-72
2023/03/26 06:13:40;;;;;;;1.30;0.50;;;10.80;99.90;;;;;;5094218;28;20145;-73
2023/03/26 06:16:07;;;;;;;1.10;0.30;;;11.00;99.90;;;;;;5094082;28;20353;-73
2023/03/26 06:18:33;;;;;;;1.48;0.63;;;11.10;99.90;;;;;;5094523;28;20024;-68
2023/03/26 06:20:58;;;;;;;2.92;0.57;;;11.10;99.90;;;;;;5076069;28;20376;-70
2023/03/26 06:23:24;;;;;;;1.80;0.60;;;11.40;99.90;;;;;;5093831;28;20028;-71
2023/03/26 06:25:50;;;;;;;2.58;0.60;;;11.50;99.90;;;;;;5093131;28;20028;-68
2023/03/26 06:28:16;;;;;;;2.53;0.57;;;11.50;99.90;;;;;;5076052;28;20502;-70
2023/03/26 06:30:41;;;;;;;1.42;0.40;;;11.60;99.90;;;;;;5093755;28;20032;-63
2023/03/26 06:33:07;;;;;;;2.42;0.60;;;11.80;99.90;;;;;;5094061;28;20036;-62
2023/03/26 06:35:33;;;;;;;0.70;0.30;;;11.70;99.90;;;;;;5093628;28;20055;-62
2023/03/26 06:37:59;;;;;;;1.92;0.38;;;11.90;99.90;;;;;;5094243;28;20020;-62
2023/03/26 06:40:25;;;;;;;1.45;0.52;;;11.90;99.90;;;;;;5094091;28;20495;-62
2023/03/26 06:42:51;;;;;;;2.35;0.70;;;12.00;99.90;;;;;;5093889;28;20028;-62
2023/03/26 06:45:17;;;;;;;2.05;0.40;;;12.10;99.90;;;;;;5093882;28;20062;-62
2023/03/26 06:47:43;;;;;;;2.85;0.47;;;12.30;99.80;;;;;;5093553;28;20016;-62
2023/03/26 06:50:10;;;;;;;2.50;0.65;;;12.40;99.00;;;;;;5093796;28;20024;-62
2023/03/26 06:52:36;;;;;;;3.28;0.38;;;12.40;98.90;;;;;;5075746;28;20055;-70
2023/03/26 06:55:04;;;;;;;3.47;0.50;;;12.30;99.30;;;;;;5093688;28;20379;-71
2023/03/26 06:57:30;;;;;;;2.35;0.47;;;12.30;99.00;;;;;;5075891;28;20028;-71
2023/03/26 06:59:56;;;;;;;2.08;0.40;;;12.50;98.80;;;;;;5093797;28;20040;-70
2023/03/26 07:02:21;;;;;;;3.85;0.80;;;12.50;98.60;;;;;;5094036;28;20020;-72
2023/03/26 07:04:47;;;;;;;2.20;0.68;;;12.40;98.50;;;;;;5076783;28;20115;-70
2023/03/26 07:07:13;;;;;;;2.70;0.90;;;12.50;98.10;;;;;;5077827;28;20028;-72
2023/03/26 07:09:38;;;;;;;3.28;0.40;;;12.40;98.00;;;;;;5077550;28;20025;-73
2023/03/26 07:12:04;;;;;;;1.42;0.30;;;12.40;98.40;;;;;;5076446;28;20127;-71
2023/03/26 07:14:31;;;;;;;3.80;0.40;;;12.60;97.60;;;;;;5075685;28;20028;-70
2023/03/26 07:17:00;;;;;;;1.73;0.50;;;12.70;97.70;;;;;;5075718;28;20032;-71
2023/03/26 07:19:25;;;;;;;2.83;0.80;;;12.90;96.70;;;;;;5075515;28;20032;-71
2023/03/26 07:21:52;;;;;;;1.88;0.35;;;13.00;96.80;;;;;;5093477;28;20073;-71
2023/03/26 07:24:18;;;;;;;3.15;0.50;;;13.40;95.90;;;;;;5075468;28;20111;-71
2023/03/26 07:27:07;;;;;;;1.77;0.40;;;13.30;95.80;;;;;;5093189;28;20052;-70
2023/03/26 07:29:40;;;;;;;1.35;0.32;;;13.40;95.60;;;;;;5092741;28;20361;-68
2023/03/26 07:32:08;;;;;;;2.45;0.47;;;13.50;94.90;;;;;;5075415;28;20032;-67
2023/03/26 07:34:58;;;;;;;2.05;0.60;;;13.70;94.20;;;;;;5075207;28;20063;-67
2023/03/26 07:37:33;;;;;;;3.10;0.80;;;13.90;94.00;;;;;;5094572;28;20115;-67
2023/03/26 07:40:08;;;;;;;2.10;0.50;;;13.80;92.80;;;;;;5097257;28;20031;-67
2023/03/26 07:42:44;;;;;;;3.58;0.52;;;13.60;93.00;;;;;;5079176;28;20028;-67
2023/03/26 07:45:10;;;;;;;1.90;0.40;;;13.60;92.90;;;;;;5096728;28;20465;-68
2023/03/26 07:47:38;;;;;;;1.27;0.30;;;13.90;92.70;;;;;;5096716;28;20069;-67
2023/03/26 07:50:05;;;;;;;1.50;0.57;;;14.10;91.70;;;;;;5096647;28;20031;-71
2023/03/26 07:52:31;;;;;;;4.97;0.70;;;13.90;91.60;;;;;;5078392;28;20047;-70
2023/03/26 07:54:57;;;;;;;4.97;0.70;;;14.00;90.90;;;;;;5096579;28;20399;-71
2023/03/26 07:57:58;;;;;;;4.28;0.65;;;14.10;90.50;;;;;;5096722;28;20024;-67
2023/03/26 08:00:40;;;;;;;2.75;1.00;;;13.70;91.20;;;;;;5096715;28;20024;-71
2023/03/26 08:03:26;;;;;;;2.92;0.60;;;13.50;92.10;;;;;;5096701;28;20024;-71
2023/03/26 08:06:04;;;;;;;4.15;2.28;;;13.60;91.20;;;;;;5079038;28;20036;-71
2023/03/26 08:08:30;;;;;;;2.40;0.60;;;13.50;91.50;;;;;;5096693;28;20024;-72
2023/03/26 08:11:06;;;;;;;4.50;0.60;;;13.40;91.30;;;;;;5078796;28;20023;-72
2023/03/26 08:13:50;;;;;;;3.97;0.77;;;13.30;91.40;;;;;;5096534;28;20031;-71
2023/03/26 08:16:24;;;;;;;2.67;0.77;;;13.00;92.00;;;;;;5096580;28;20036;-72
2023/03/26 08:19:02;;;;;;;4.85;0.77;;;12.90;92.70;;;;;;5078513;28;20051;-72
2023/03/26 08:21:37;;;;;;;4.50;0.50;;;12.90;92.10;;;;;;5096323;28;20073;-72
2023/03/26 08:24:25;;;;;;;3.33;0.60;;;13.00;92.40;;;;;;5078521;28;20085;-71
2023/03/26 08:27:12;;;;;;;4.55;0.60;;;13.30;91.60;;;;;;5078160;28;20464;-71
2023/03/26 08:29:48;;;;;;;5.65;0.85;;;13.60;91.20;;;;;;5096255;28;20056;-69
2023/03/26 08:32:17;;;;;;;5.60;0.70;;;14.10;90.50;;;;;;5096151;28;20016;-71
2023/03/26 08:34:43;;;;;;;4.47;0.70;;;14.60;87.90;;;;;;5077895;28;20020;-72
2023/03/26 08:37:10;;;;;;;5.65;0.50;;;14.50;85.10;;;;;;5077836;28;20032;-72
2023/03/26 08:39:40;;;;;;;8.15;0.70;;;14.30;85.70;;;;;;5078308;28;20032;-72
2023/03/26 08:42:18;;;;;;;4.38;0.70;;;14.20;84.70;;;;;;5096516;28;20487;-71
2023/03/26 08:45:17;;;;;;;3.50;0.65;;;14.10;84.90;;;;;;5096094;28;20032;-71
2023/03/26 08:48:28;;;;;;;2.35;0.47;;;14.00;85.50;;;;;;5078137;28;20020;-72
2023/03/26 08:51:16;;;;;;;1.83;0.47;;;13.80;83.80;;;;;;5095637;28;20035;-71
2023/03/26 08:53:55;;;;;;;2.58;0.60;;;13.70;86.00;;;;;;5077657;28;20176;-70
2023/03/26 08:56:39;;;;;;;;;;;13.90;84.90;;;;;;5077961;28;20028;-71
2023/03/26 08:59:26;;;;;;;5.43;0.77;;;14.10;84.80;;;;;;5077318;28;19911;-71
2023/03/26 09:02:16;;;;;;;7.78;1.08;;;14.40;84.30;;;;;;5095497;28;20081;-72
2023/03/26 09:04:48;;;;;;;7.65;1.50;;;14.40;81.60;;;;;;5077512;28;20020;-70
2023/03/26 09:07:35;;;;;;;5.32;1.02;;;14.60;81.10;;;;;;5077345;28;20024;-71
2023/03/26 09:10:29;;;;;;;3.88;0.70;;;14.70;79.20;;;;;;5077065;28;20024;-71
2023/03/26 09:13:32;;;;;;;2.40;0.75;;;15.20;79.40;;;;;;5077272;28;20552;-71
2023/03/26 09:16:25;;;;;;;4.40;0.70;;;15.80;76.10;;;;;;5095060;28;20024;-71
2023/03/26 09:19:13;;;;;;;3.33;0.63;;;16.30;73.10;;;;;;5077420;28;20147;-71
2023/03/26 09:21:54;;;;;;;4.45;0.68;;;16.40;67.20;;;;;;5077101;28;20027;-72
2023/03/26 09:24:45;;;;;;;1.55;0.55;;;16.60;68.80;;;;;;5095083;28;20473;-71
2023/03/26 09:27:29;;;;;;;2.65;0.68;;;16.70;65.60;;;;;;5077396;28;20028;-71
2023/03/26 09:30:00;;;;;;;3.95;0.60;;;16.60;63.30;;;;;;5095026;28;20024;-71
2023/03/26 09:32:26;;;;;;;4.53;0.60;;;16.40;64.70;;;;;;5076778;28;20075;-71
2023/03/26 09:35:29;;;;;;;3.92;0.50;;;16.50;64.70;;;;;;5094465;28;20468;-71
2023/03/26 09:38:27;;;;;;;4.55;0.60;;;16.50;63.90;;;;;;5077159;28;20039;-72
2023/03/26 09:41:15;;;;;;;1.88;0.45;;;16.10;63.60;;;;;;5094814;28;20028;-71
2023/03/26 09:44:02;;;;;;;2.42;0.63;;;15.90;64.50;;;;;;5094803;28;20543;-72
2023/03/26 09:46:46;;;;;;;6.20;0.65;;;16.00;64.70;;;;;;5094668;28;20028;-71
2023/03/26 09:49:23;;;;;;;2.95;0.60;;;16.40;64.10;;;;;;5076468;28;20391;-71
2023/03/26 09:52:04;;;;;;;5.95;0.60;;;17.00;60.90;;;;;;5076131;28;20135;-71
2023/03/26 09:54:47;;;;;;;4.28;0.35;;;17.30;59.80;;;;;;5076448;28;20456;-71
2023/03/26 09:57:31;;;;;;;2.22;0.40;;;17.90;58.50;;;;;;5094702;28;20035;-71
2023/03/26 09:59:56;;;;;;;3.95;0.70;;;18.70;56.50;;;;;;5076156;28;20020;-72
2023/03/26 10:02:50;;;;;;;3.45;0.45;;;18.70;53.60;;;;;;5076214;28;20388;-71
2023/03/26 10:05:21;;;;;;;2.90;0.60;;;18.60;54.50;;;;;;5076154;28;20054;-71
2023/03/26 10:08:21;;;;;;;1.63;0.55;;;18.60;54.00;;;;;;5094245;28;20099;-71
2023/03/26 10:10:52;;;;;;;4.30;0.43;;;18.60;53.00;;;;;;5076276;28;20028;-71
2023/03/26 10:13:43;;;;;;;4.10;0.73;;;18.20;51.90;;;;;;5075953;28;20058;-72
2023/03/26 10:16:15;;;;;;;2.78;0.70;;;17.80;53.60;;;;;;5075933;28;20028;-71
2023/03/26 10:19:00;;;;;;;3.00;0.52;;;17.60;52.90;;;;;;5094113;28;20031;-71
2023/03/26 10:21:48;;;;;;;1.98;0.40;;;17.10;53.70;;;;;;5094118;28;20411;-71
2023/03/26 10:24:23;;;;;;;1.85;0.45;;;16.50;55.10;;;;;;5076146;28;20055;-72
2023/03/26 10:27:16;;;;;;;3.30;0.40;;;16.40;55.90;;;;;;5075986;28;20032;-72
2023/03/26 10:30:08;;;;;;;5.28;0.93;;;16.60;56.80;;;;;;5075919;28;20024;-72
2023/03/26 10:32:44;;;;;;;3.65;1.23;;;17.00;55.90;;;;;;5046836;28;20075;-72
2023/03/26 10:35:36;;;;;;;5.13;0.50;;;16.90;55.60;;;;;;5076054;28;20379;-72
2023/03/26 10:38:12;;;;;;;3.33;0.45;;;17.20;55.10;;;;;;5093771;28;20537;-72
2023/03/26 10:40:57;;;;;;;3.70;0.40;;;17.40;55.20;;;;;;5075742;28;20021;-72
2023/03/26 10:43:56;;;;;;;1.35;0.60;;;17.80;54.60;;;;;;5075698;28;20031;-72
2023/03/26 10:46:40;;;;;;;;;;;18.70;53.00;;;;;;5076408;28;20051;-72
2023/03/26 10:49:27;;;;;;;3.30;0.52;;;19.30;50.70;;;;;;5075624;28;20339;-71
2023/03/26 10:52:03;;;;;;;2.03;0.40;;;19.60;49.30;;;;;;5093960;28;20077;-71
2023/03/26 10:54:50;;;;;;;3.75;0.55;;;19.40;48.30;;;;;;5076208;28;20032;-71
2023/03/26 10:57:35;;;;;;;1.55;0.38;;;18.60;49.00;;;;;;5093596;28;20435;-71
2023/03/26 11:00:16;;;;;;;3.40;0.45;;;18.30;49.40;;;;;;5075659;28;20064;-71
2023/03/26 11:03:11;;;;;;;1.92;0.22;;;18.30;48.80;;;;;;5075729;28;20027;-70
2023/03/26 11:06:03;;;;;;;3.08;0.60;;;18.70;46.80;;;;;;5075434;28;20474;-71
2023/03/26 11:08:54;;;;;;;1.67;0.40;;;19.00;45.70;;;;;;5088808;28;20036;-71
2023/03/26 11:11:40;;;;;;;1.90;0.40;;;19.40;44.10;;;;;;5061154;28;20388;-71
2023/03/26 11:14:34;;;;;;;1.98;0.30;;;19.80;44.00;;;;;;5097903;28;20021;-71
2023/03/26 11:17:22;;;;;;;2.33;0.30;;;20.20;42.60;;;;;;5097587;28;20028;-70
2023/03/26 11:20:02;;;;;;;0.67;0.20;;;20.20;43.00;;;;;;5097135;28;20476;-70
2023/03/26 11:22:49;;;;;;;0.73;0.30;;;20.50;42.90;;;;;;5097435;28;20107;-77
2023/03/26 11:25:42;;;;;;;2.33;0.40;;;20.70;41.40;;;;;;5079174;28;20020;-77
2023/03/26 11:28:14;;;;;;;2.15;0.20;;;21.10;41.00;;;;;;5097135;28;20491;-75
2023/03/26 11:30:59;;;;;;;3.25;0.30;;;20.90;42.10;;;;;;5079114;28;20440;-77
2023/03/26 11:33:38;;;;;;;1.80;0.50;;;20.70;41.60;;;;;;5097148;28;20021;-70
2023/03/26 11:36:13;;;;;;;1.52;0.22;;;20.00;41.00;;;;;;5079156;28;20035;-70
2023/03/26 11:38:45;;;;;;;2.50;0.35;;;19.60;41.80;;;;;;5096887;28;20127;-69
2023/03/26 11:41:20;;;;;;;3.20;0.60;;;19.60;42.50;;;;;;5096900;28;20020;-72
2023/03/26 11:44:08;;;;;;;1.05;0.15;;;19.60;43.30;;;;;;5078217;28;20028;-70
2023/03/26 11:46:38;;;;;;;1.42;0.30;;;19.30;43.20;;;;;;5094468;28;20430;-70
2023/03/26 11:49:10;;;;;;;3.42;0.40;;;18.90;43.30;;;;;;5096818;28;20024;-70
2023/03/26 11:51:38;;;;;;;2.30;0.45;;;18.20;44.00;;;;;;5075112;28;20044;-71
2023/03/26 11:54:06;;;;;;;1.98;0.65;;;18.00;44.60;;;;;;5076502;28;20035;-70
2023/03/26 11:57:12;;;;;;;3.50;0.75;;;18.20;45.00;;;;;;5075148;28;20421;-71
2023/03/26 11:59:49;;;;;;;1.30;0.25;;;18.30;45.00;;;;;;5076735;28;20043;-71
2023/03/26 12:02:27;;;;;;;2.45;0.38;;;18.30;44.00;;;;;;5075239;28;20411;-63
2023/03/26 12:05:11;;;;;;;3.10;0.40;;;18.00;43.50;;;;;;5074835;28;20066;-69
2023/03/26 12:07:46;;;;;;;1.15;0.20;;;17.50;43.60;;;;;;5076293;28;20043;-71
2023/03/26 12:10:24;;;;;;;3.47;0.45;;;17.30;43.90;;;;;;5076302;28;20024;-72
2023/03/26 12:12:53;;;;;;;0.40;0.10;;;17.40;44.30;;;;;;5076035;28;20050;-71
2023/03/26 12:15:20;;;;;;;;;;;17.10;44.30;;;;;;5075017;28;20025;-71
2023/03/26 12:17:50;;;;;;;0.43;0.20;;;17.10;44.80;;;;;;5074679;28;19961;-71
2023/03/26 12:20:25;;;;;;;1.20;0.25;;;17.20;44.30;;;;;;5074660;28;20039;-72
2023/03/26 12:22:58;;;;;;;1.30;0.30;;;17.10;43.80;;;;;;5075581;28;20468;-71
2023/03/26 12:25:33;;;;;;;2.05;1.17;;;17.10;44.00;;;;;;5075813;28;20104;-71
2023/03/26 12:28:03;;;;;;;0.52;0.08;;;17.10;44.00;;;;;;5075686;28;20031;-70
2023/03/26 12:30:38;;;;;;;2.58;1.05;;;17.10;44.00;;;;;;5075770;28;20024;-71
2023/03/26 12:33:13;;;;;;;3.65;0.30;;;17.20;43.90;;;;;;5074584;28;20027;-71
2023/03/26 12:35:39;;;;;;;0.10;0.05;;;17.20;43.40;;;;;;5075497;28;20055;-71
2023/03/26 12:38:26;;;;;;;0.73;0.17;;;17.20;43.80;;;;;;5075686;28;20029;-70
2023/03/26 12:41:14;;;;;;;0.50;0.10;;;17.30;44.40;;;;;;5075647;28;20441;-70
2023/03/26 12:43:41;;;;;;;2.17;0.30;;;17.10;43.60;;;;;;5075640;28;20027;-70
2023/03/26 12:46:23;;;;;;;0.90;0.17;;;17.10;43.60;;;;;;5075545;28;20036;-71
2023/03/26 12:48:58;;;;;;;1.95;0.28;;;17.10;44.30;;;;;;5075923;28;20032;-71
2023/03/26 12:51:45;;;;;;;0.73;0.10;;;17.10;43.10;;;;;;5078138;28;20491;-71
2023/03/26 12:54:36;;;;;;;0.98;0.20;;;17.20;42.90;;;;;;5077280;28;20119;-71
2023/03/26 12:57:19;;;;;;;1.17;0.05;;;17.20;42.50;;;;;;5095666;28;20024;-71
2023/03/26 12:59:45;;;;;;;0.30;0.25;;;16.80;43.10;;;;;;5077697;28;20031;-71
2023/03/26 13:02:24;;;;;;;0.10;0.00;;;17.10;43.60;;;;;;5077273;28;20024;-70
2023/03/26 13:05:23;;;;;;;0.20;0.10;;;17.40;43.10;;;;;;5095624;28;20047;-70
2023/03/26 13:08:01;;;;;;;2.25;0.00;;;17.70;42.50;;;;;;5076701;28;20028;-71
2023/03/26 13:10:49;;;;;;;0.55;0.10;;;17.80;40.90;;;;;;5095435;28;20051;-71
2023/03/26 13:13:31;;;;;;;1.55;0.38;;;17.60;41.00;;;;;;5095212;28;20028;-70
2023/03/26 13:16:27;;;;;;;0.10;0.10;;;17.20;41.20;;;;;;5077333;28;20032;-69
2023/03/26 13:19:06;;;;;;;0.80;0.20;;;16.90;42.00;;;;;;5090280;28;20075;-70
2023/03/26 13:21:51;;;;;;;1.90;0.85;;;16.70;42.90;;;;;;5095149;28;20032;-71
2023/03/26 13:24:34;;;;;;;1.02;0.30;;;16.80;43.40;;;;;;5076519;28;20111;-70
2023/03/26 13:27:29;;;;;;;0.35;0.10;;;16.90;43.30;;;;;;5077081;28;20123;-78